| time (UTC) | temp F | wind direction | speed MPH | gust MPH | rain 1hr in | rain 24hr in | rain mn in | humidity % | barometer mb |
| 20260507051507 | 52 | 193 | 0.0 | 0.0 | 0.00 | 0.00 | 0.00 | 94 | 1021.2 |
| 20260507050006 | 52 | 193 | 0.0 | 0.0 | 0.00 | 0.00 | 0.00 | 93 | 1021.0 |
| 20260507045506 | 52 | 193 | 0.0 | 0.0 | 0.00 | 0.00 | 0.00 | 93 | 1021.1 |
| 20260507044505 | 52 | 193 | 0.0 | 0.0 | 0.00 | 0.00 | 0.00 | 93 | 1020.9 |
| 20260507043506 | 52 | 193 | 0.0 | 0.0 | 0.00 | 0.00 | 0.00 | 93 | 1020.9 |
| 20260507043005 | 52 | 193 | 0.0 | 0.0 | 0.00 | 0.00 | 0.00 | 92 | 1020.9 |
| 20260507042506 | 53 | 193 | 0.0 | 0.0 | 0.00 | 0.00 | 0.00 | 93 | 1020.9 |
| 20260507042008 | 53 | 193 | 0.0 | 0.0 | 0.00 | 0.00 | 0.00 | 93 | 1020.8 |
| 20260507041506 | 53 | 193 | 0.0 | 0.0 | 0.00 | 0.00 | 0.00 | 92 | 1020.9 |
| 20260507040505 | 53 | 193 | 0.0 | 0.0 | 0.00 | 0.00 | 0.00 | 92 | 1020.8 |
| 20260507040005 | 53 | 193 | 0.0 | 0.0 | 0.00 | 0.00 | 0.00 | 92 | 1020.8 |
| 20260507035506 | 53 | 193 | 0.0 | 0.0 | 0.00 | 0.00 | 0.00 | 91 | 1020.8 |
| 20260507035004 | 54 | 193 | 0.0 | 0.0 | 0.00 | 0.00 | 0.00 | 91 | 1020.7 |
| 20260507034006 | 54 | 193 | 0.0 | 0.0 | 0.00 | 0.00 | 0.00 | 91 | 1020.7 |
| 20260507033505 | 54 | 193 | 0.0 | 0.0 | 0.00 | 0.00 | 0.00 | 91 | 1020.6 |
| 20260507033006 | 54 | 193 | 0.0 | 0.0 | 0.00 | 0.00 | 0.00 | 90 | 1020.5 |
| 20260507032505 | 55 | 193 | 0.0 | 0.0 | 0.00 | 0.00 | 0.00 | 90 | 1020.5 |
| 20260507031007 | 56 | 193 | 0.0 | 0.0 | 0.00 | 0.00 | 0.00 | 88 | 1020.5 |
| 20260507030506 | 56 | 193 | 0.0 | 0.0 | 0.00 | 0.00 | 0.00 | 88 | 1020.4 |
| 20260507025503 | 57 | 169 | 0.0 | 0.0 | 0.00 | 0.00 | 0.00 | 86 | 1020.3 |
| 20260507025006 | 57 | 169 | 0.0 | 0.0 | 0.00 | 0.00 | 0.00 | 86 | 1020.3 |
| 20260507024005 | 57 | 169 | 0.0 | 2.0 | 0.00 | 0.00 | 0.00 | 84 | 1020.2 |
| 20260507023505 | 58 | 133 | 0.0 | 1.0 | 0.00 | 0.00 | 0.00 | 84 | 1020.1 |
| 20260507023007 | 58 | 74 | 0.0 | 1.0 | 0.00 | 0.00 | 0.00 | 84 | 1020.1 |
| 20260507022506 | 58 | 82 | 0.0 | 1.0 | 0.00 | 0.00 | 0.00 | 83 | 1020.1 |
| 20260507022005 | 59 | 82 | 0.0 | 1.0 | 0.00 | 0.00 | 0.00 | 83 | 1020.1 |
| 20260507020505 | 59 | 229 | 0.0 | 1.0 | 0.00 | 0.00 | 0.00 | 81 | 1020.1 |
| 20260507020007 | 60 | 127 | 0.0 | 1.0 | 0.00 | 0.02 | 0.00 | 81 | 1020.1 |
| 20260507015006 | 60 | 155 | 0.0 | 2.0 | 0.00 | 0.02 | 0.00 | 79 | 1020.0 |
| 20260507014506 | 60 | 195 | 0.0 | 3.0 | 0.00 | 0.02 | 0.00 | 78 | 1020.1 |
| 20260507014005 | 61 | 270 | 1.0 | 3.0 | 0.00 | 0.02 | 0.00 | 78 | 1020.0 |
| 20260507013005 | 61 | 113 | 0.0 | 4.0 | 0.00 | 0.02 | 0.00 | 77 | 1020.0 |
| 20260507012506 | 62 | 156 | 0.0 | 4.0 | 0.00 | 0.02 | 0.00 | 76 | 1020.0 |
| 20260507011505 | 62 | 110 | 0.0 | 4.0 | 0.00 | 0.02 | 0.00 | 75 | 1019.9 |
| 20260507011005 | 62 | 262 | 0.0 | 1.0 | 0.00 | 0.02 | 0.00 | 76 | 1019.9 |
| 20260507010504 | 63 | 138 | 1.0 | 2.0 | 0.00 | 0.02 | 0.00 | 75 | 1019.9 |
| 20260507004506 | 64 | 117 | 1.0 | 5.0 | 0.00 | 0.03 | 0.00 | 72 | 1019.9 |
| 20260507004005 | 64 | 26 | 1.0 | 5.0 | 0.00 | 0.03 | 0.00 | 71 | 1019.8 |
| 20260507003506 | 64 | 140 | 1.0 | 4.0 | 0.00 | 0.03 | 0.00 | 70 | 1019.8 |
| 20260507003006 | 65 | 99 | 1.0 | 5.0 | 0.00 | 0.03 | 0.00 | 69 | 1019.8 |
| 20260507002505 | 65 | 238 | 0.0 | 3.0 | 0.00 | 0.03 | 0.00 | 70 | 1019.9 |
| 20260507002005 | 65 | 53 | 0.0 | 5.0 | 0.00 | 0.03 | 0.00 | 69 | 1019.8 |
| 20260507000007 | 67 | 244 | 1.0 | 4.0 | 0.00 | 0.04 | 0.00 | 66 | 1019.7 |
| 20260506235505 | 67 | 96 | 1.0 | 4.0 | 0.00 | 0.04 | 0.00 | 65 | 1019.9 |
| 20260506235005 | 67 | 216 | 1.0 | 4.0 | 0.00 | 0.04 | 0.00 | 64 | 1019.8 |
| 20260506234005 | 68 | 152 | 1.0 | 6.0 | 0.00 | 0.04 | 0.00 | 62 | 1019.8 |
| 20260506233506 | 68 | 235 | 1.0 | 6.0 | 0.00 | 0.04 | 0.00 | 61 | 1019.9 |
| 20260506233006 | 68 | 275 | 1.0 | 4.0 | 0.00 | 0.04 | 0.00 | 62 | 1020.0 |
| 20260506232506 | 69 | 283 | 1.0 | 3.0 | 0.00 | 0.04 | 0.00 | 62 | 1019.9 |
| 20260506232006 | 68 | 135 | 1.0 | 5.0 | 0.00 | 0.04 | 0.00 | 63 | 1020.0 |
| 20260506230505 | 68 | 170 | 2.0 | 6.0 | 0.00 | 0.04 | 0.00 | 62 | 1020.2 |
| 20260506230007 | 68 | 45 | 1.0 | 8.0 | 0.00 | 0.04 | 0.00 | 60 | 1020.1 |
| 20260506225505 | 68 | 123 | 1.0 | 8.0 | 0.00 | 0.05 | 0.00 | 63 | 1020.2 |
| 20260506225008 | 68 | 346 | 1.0 | 6.0 | 0.00 | 0.05 | 0.00 | 62 | 1020.3 |
| 20260506224506 | 68 | 79 | 2.0 | 10.0 | 0.00 | 0.05 | 0.00 | 61 | 1020.3 |
| 20260506224006 | 68 | 66 | 2.0 | 10.0 | 0.00 | 0.05 | 0.00 | 60 | 1020.3 |
| 20260506223005 | 68 | 287 | 2.0 | 8.0 | 0.00 | 0.05 | 0.00 | 63 | 1020.4 |
| 20260506222507 | 68 | 88 | 2.0 | 8.0 | 0.00 | 0.05 | 0.00 | 61 | 1020.4 |
| 20260506222006 | 69 | 287 | 1.0 | 6.0 | 0.00 | 0.05 | 0.00 | 58 | 1020.4 |
| 20260506221006 | 69 | 210 | 2.0 | 7.0 | 0.00 | 0.05 | 0.00 | 61 | 1020.3 |
| 20260506220007 | 70 | 120 | 1.0 | 4.0 | 0.00 | 0.05 | 0.00 | 57 | 1020.5 |
| 20260506215506 | 71 | 223 | 1.0 | 4.0 | 0.00 | 0.05 | 0.00 | 55 | 1020.5 |
| 20260506215008 | 71 | 223 | 1.0 | 4.0 | 0.00 | 0.05 | 0.00 | 57 | 1020.6 |
| 20260506214507 | 71 | 257 | 1.0 | 4.0 | 0.00 | 0.05 | 0.00 | 55 | 1020.7 |
| 20260506214006 | 70 | 252 | 1.0 | 4.0 | 0.00 | 0.05 | 0.00 | 58 | 1020.6 |
| 20260506213506 | 70 | 65 | 1.0 | 3.0 | 0.00 | 0.05 | 0.00 | 58 | 1020.5 |
| 20260506213005 | 69 | 121 | 1.0 | 3.0 | 0.00 | 0.05 | 0.00 | 59 | 1020.5 |
| 20260506212506 | 69 | 47 | 1.0 | 3.0 | 0.00 | 0.05 | 0.00 | 57 | 1020.5 |
| 20260506212006 | 69 | 253 | 1.0 | 3.0 | 0.00 | 0.05 | 0.00 | 57 | 1020.6 |
| 20260506211505 | 69 | 127 | 1.0 | 3.0 | 0.00 | 0.05 | 0.00 | 60 | 1020.6 |
| 20260506211005 | 68 | 70 | 1.0 | 4.0 | 0.00 | 0.05 | 0.00 | 59 | 1020.7 |
| 20260506210506 | 67 | 75 | 1.0 | 5.0 | 0.00 | 0.05 | 0.00 | 61 | 1020.8 |
| 20260506210006 | 68 | 297 | 1.0 | 4.0 | 0.00 | 0.05 | 0.00 | 60 | 1020.9 |
| 20260506205507 | 68 | 303 | 1.0 | 4.0 | 0.00 | 0.05 | 0.00 | 62 | 1020.9 |
| 20260506205007 | 67 | 159 | 1.0 | 7.0 | 0.00 | 0.05 | 0.00 | 62 | 1020.7 |
| 20260506204007 | 67 | 101 | 1.0 | 6.0 | 0.00 | 0.05 | 0.00 | 60 | 1020.7 |
| 20260506203506 | 67 | 276 | 2.0 | 6.0 | 0.00 | 0.05 | 0.00 | 62 | 1020.8 |
| 20260506203007 | 67 | 235 | 2.0 | 6.0 | 0.00 | 0.05 | 0.00 | 60 | 1020.8 |
| 20260506202505 | 68 | 110 | 1.0 | 6.0 | 0.00 | 0.05 | 0.00 | 58 | 1020.9 |
| 20260506202010 | 69 | 245 | 1.0 | 6.0 | 0.00 | 0.05 | 0.00 | 57 | 1021.0 |
| 20260506201505 | 68 | 113 | 1.0 | 3.0 | 0.00 | 0.05 | 0.00 | 61 | 1021.0 |
| 20260506201005 | 67 | 49 | 1.0 | 3.0 | 0.00 | 0.05 | 0.00 | 60 | 1021.1 |
| 20260506200510 | 66 | 204 | 1.0 | 6.0 | 0.00 | 0.05 | 0.00 | 62 | 1021.0 |
| 20260506200011 | 66 | 254 | 2.0 | 6.0 | 0.00 | 0.05 | 0.00 | 61 | 1021.0 |
| 20260506195505 | 66 | 133 | 2.0 | 6.0 | 0.00 | 0.05 | 0.00 | 60 | 1021.0 |
| 20260506195006 | 66 | 253 | 1.0 | 5.0 | 0.00 | 0.05 | 0.00 | 60 | 1021.0 |
| 20260506194507 | 67 | 147 | 1.0 | 4.0 | 0.00 | 0.05 | 0.00 | 61 | 1021.0 |
| 20260506194006 | 66 | 185 | 1.0 | 4.0 | 0.00 | 0.05 | 0.00 | 62 | 1020.9 |
| 20260506193008 | 65 | 340 | 1.0 | 5.0 | 0.00 | 0.05 | 0.00 | 62 | 1020.9 |
| 20260506192508 | 65 | 55 | 1.0 | 5.0 | 0.00 | 0.05 | 0.00 | 62 | 1021.0 |
| 20260506192007 | 65 | 289 | 1.0 | 5.0 | 0.00 | 0.05 | 0.00 | 62 | 1021.1 |
| 20260506191004 | 64 | 96 | 1.0 | 3.0 | 0.00 | 0.05 | 0.00 | 63 | 1021.0 |
| 20260506190506 | 64 | 157 | 1.0 | 3.0 | 0.00 | 0.05 | 0.00 | 66 | 1021.1 |
| 20260506190008 | 63 | 101 | 2.0 | 4.0 | 0.00 | 0.05 | 0.00 | 64 | 1021.2 |
| 20260506185509 | 63 | 311 | 2.0 | 5.0 | 0.00 | 0.05 | 0.00 | 71 | 1021.2 |
| 20260506185009 | 62 | 84 | 2.0 | 6.0 | 0.00 | 0.05 | 0.00 | 68 | 1021.1 |
| 20260506184007 | 62 | 243 | 2.0 | 6.0 | 0.00 | 0.05 | 0.00 | 70 | 1021.0 |
| 20260506183508 | 62 | 84 | 1.0 | 7.0 | 0.00 | 0.05 | 0.00 | 66 | 1021.1 |
| 20260506182509 | 61 | 281 | 2.0 | 6.0 | 0.00 | 0.05 | 0.00 | 69 | 1021.0 |
| 20260506182006 | 61 | 108 | 2.0 | 7.0 | 0.00 | 0.05 | 0.00 | 69 | 1021.0 |
| 20260506181505 | 61 | 76 | 1.0 | 7.0 | 0.00 | 0.05 | 0.00 | 68 | 1021.0 |
| 20260506180506 | 62 | 72 | 1.0 | 3.0 | 0.00 | 0.05 | 0.00 | 67 | 1020.8 |
| 20260506180011 | 61 | 75 | 1.0 | 4.0 | 0.00 | 0.05 | 0.00 | 71 | 1020.7 |
| 20260506175506 | 61 | 127 | 1.0 | 4.0 | 0.00 | 0.05 | 0.00 | 69 | 1020.7 |
| 20260506175005 | 60 | 113 | 2.0 | 7.0 | 0.00 | 0.05 | 0.00 | 70 | 1020.7 |
| 20260506174004 | 60 | 280 | 1.0 | 7.0 | 0.00 | 0.05 | 0.00 | 70 | 1020.7 |
| 20260506173505 | 59 | 167 | 1.0 | 4.0 | 0.00 | 0.05 | 0.00 | 69 | 1020.7 |
| 20260506173006 | 59 | 251 | 1.0 | 2.0 | 0.00 | 0.05 | 0.00 | 72 | 1020.6 |
| 20260506172506 | 59 | 73 | 1.0 | 4.0 | 0.00 | 0.05 | 0.00 | 71 | 1020.5 |
| 20260506172006 | 58 | 133 | 1.0 | 4.0 | 0.00 | 0.05 | 0.00 | 71 | 1020.6 |
| 20260506171505 | 58 | 150 | 1.0 | 4.0 | 0.00 | 0.05 | 0.00 | 72 | 1020.6 |
| 20260506171006 | 57 | 231 | 1.0 | 2.0 | 0.00 | 0.05 | 0.00 | 74 | 1020.5 |
| 20260506170507 | 57 | 141 | 1.0 | 3.0 | 0.00 | 0.05 | 0.00 | 72 | 1020.6 |
| 20260506165005 | 57 | 116 | 0.0 | 4.0 | 0.00 | 0.05 | 0.00 | 73 | 1020.6 |
| 20260506164503 | 57 | 112 | 0.0 | 3.0 | 0.00 | 0.05 | 0.00 | 75 | 1020.6 |
| 20260506164006 | 56 | 350 | 0.0 | 3.0 | 0.00 | 0.05 | 0.00 | 75 | 1020.6 |
| 20260506163507 | 56 | 109 | 0.0 | 1.0 | 0.00 | 0.05 | 0.00 | 75 | 1020.6 |
| 20260506162505 | 55 | 124 | 1.0 | 3.0 | 0.00 | 0.05 | 0.00 | 78 | 1020.6 |
| 20260506162006 | 54 | 157 | 1.0 | 3.0 | 0.00 | 0.05 | 0.00 | 78 | 1020.6 |
| 20260506161506 | 54 | 125 | 0.0 | 2.0 | 0.00 | 0.05 | 0.00 | 79 | 1020.5 |
| 20260506161007 | 53 | 63 | 1.0 | 2.0 | 0.00 | 0.05 | 0.00 | 81 | 1020.5 |
| 20260506160009 | 53 | 145 | 0.0 | 3.0 | 0.00 | 0.05 | 0.00 | 83 | 1020.4 |
| 20260506155506 | 51 | 136 | 0.0 | 1.0 | 0.00 | 0.05 | 0.00 | 84 | 1020.5 |
| 20260506155006 | 50 | 136 | 0.0 | 3.0 | 0.00 | 0.05 | 0.00 | 84 | 1020.5 |
| 20260506154506 | 50 | 129 | 0.0 | 3.0 | 0.00 | 0.05 | 0.00 | 86 | 1020.5 |
| 20260506154006 | 49 | 35 | 1.0 | 3.0 | 0.00 | 0.05 | 0.00 | 85 | 1020.4 |
| 20260506153505 | 49 | 157 | 1.0 | 3.0 | 0.00 | 0.05 | 0.00 | 85 | 1020.4 |
| 20260506153007 | 50 | 131 | 1.0 | 2.0 | 0.00 | 0.05 | 0.00 | 84 | 1020.5 |
| 20260506152505 | 49 | 195 | 0.0 | 2.0 | 0.00 | 0.05 | 0.00 | 85 | 1020.5 |
| 20260506152006 | 49 | 141 | 0.0 | 1.0 | 0.00 | 0.05 | 0.00 | 87 | 1020.5 |
| 20260506151006 | 49 | 141 | 0.0 | 1.0 | 0.00 | 0.05 | 0.00 | 91 | 1020.6 |
| 20260506150505 | 49 | 101 | 0.0 | 1.0 | 0.00 | 0.05 | 0.00 | 96 | 1020.5 |
| 20260506145505 | 48 | 281 | 0.0 | 0.0 | 0.00 | 0.06 | 0.00 | 96 | 1020.4 |
| 20260506145007 | 47 | 281 | 0.0 | 0.0 | 0.00 | 0.06 | 0.00 | 96 | 1020.4 |
| 20260506144507 | 45 | 281 | 0.0 | 0.0 | 0.00 | 0.06 | 0.00 | 96 | 1020.5 |
| 20260506143504 | 44 | 281 | 0.0 | 0.0 | 0.00 | 0.06 | 0.00 | 96 | 1020.4 |
| 20260506143005 | 43 | 281 | 0.0 | 0.0 | 0.00 | 0.06 | 0.00 | 96 | 1020.3 |
| 20260506142506 | 43 | 281 | 0.0 | 0.0 | 0.00 | 0.06 | 0.00 | 96 | 1020.3 |
| 20260506142006 | 42 | 281 | 0.0 | 0.0 | 0.00 | 0.06 | 0.00 | 96 | 1020.2 |
| 20260506141504 | 42 | 281 | 0.0 | 0.0 | 0.00 | 0.06 | 0.00 | 96 | 1020.1 |
| 20260506141005 | 42 | 281 | 0.0 | 0.0 | 0.00 | 0.06 | 0.00 | 96 | 1020.0 |
| 20260506140007 | 41 | 281 | 0.0 | 0.0 | 0.00 | 0.10 | 0.00 | 96 | 1019.9 |
| 20260506135506 | 41 | 281 | 0.0 | 0.0 | 0.00 | 0.10 | 0.00 | 96 | 1019.9 |
| 20260506135006 | 40 | 281 | 0.0 | 1.0 | 0.00 | 0.10 | 0.00 | 96 | 1020.0 |
| 20260506134506 | 40 | 281 | 0.0 | 1.0 | 0.00 | 0.10 | 0.00 | 96 | 1019.8 |
| 20260506134005 | 41 | 281 | 0.0 | 0.0 | 0.00 | 0.10 | 0.00 | 96 | 1019.8 |
| 20260506133004 | 40 | 281 | 0.0 | 0.0 | 0.00 | 0.10 | 0.00 | 96 | 1019.8 |
| 20260506132506 | 40 | 281 | 0.0 | 0.0 | 0.00 | 0.10 | 0.00 | 96 | 1019.8 |
| 20260506132006 | 40 | 280 | 0.0 | 0.0 | 0.00 | 0.10 | 0.00 | 96 | 1019.7 |
| 20260506131506 | 40 | 281 | 0.0 | 0.0 | 0.00 | 0.10 | 0.00 | 96 | 1019.7 |
| 20260506131006 | 40 | 281 | 0.0 | 0.0 | 0.00 | 0.10 | 0.00 | 96 | 1019.7 |
| 20260506130506 | 40 | 281 | 0.0 | 0.0 | 0.00 | 0.10 | 0.00 | 96 | 1019.6 |
| 20260506130006 | 40 | 281 | 0.0 | 0.0 | 0.00 | 0.13 | 0.00 | 96 | 1019.6 |
| 20260506125506 | 40 | 281 | 0.0 | 0.0 | 0.00 | 0.13 | 0.00 | 96 | 1019.6 |
| 20260506124508 | 40 | 281 | 0.0 | 0.0 | 0.00 | 0.13 | 0.00 | 96 | 1019.5 |
| 20260506124005 | 40 | 281 | 0.0 | 0.0 | 0.00 | 0.13 | 0.00 | 96 | 1019.4 |
| 20260506123006 | 41 | 281 | 0.0 | 0.0 | 0.00 | 0.13 | 0.00 | 96 | 1019.3 |
| 20260506122506 | 41 | 281 | 0.0 | 0.0 | 0.00 | 0.13 | 0.00 | 96 | 1019.4 |
| 20260506122006 | 41 | 281 | 0.0 | 0.0 | 0.00 | 0.13 | 0.00 | 96 | 1019.3 |
| 20260506121504 | 41 | 281 | 0.0 | 0.0 | 0.00 | 0.13 | 0.00 | 96 | 1019.4 |
| 20260506121007 | 41 | 281 | 0.0 | 0.0 | 0.00 | 0.13 | 0.00 | 96 | 1019.3 |
| 20260506120006 | 41 | 281 | 0.0 | 0.0 | 0.00 | 0.16 | 0.00 | 96 | 1019.4 |
| 20260506115506 | 41 | 281 | 0.0 | 0.0 | 0.00 | 0.16 | 0.00 | 96 | 1019.4 |
| 20260506115005 | 41 | 281 | 0.0 | 0.0 | 0.00 | 0.16 | 0.00 | 95 | 1019.3 |
| 20260506114505 | 41 | 281 | 0.0 | 0.0 | 0.00 | 0.16 | 0.00 | 95 | 1019.2 |
| 20260506114006 | 41 | 281 | 0.0 | 0.0 | 0.00 | 0.16 | 0.00 | 95 | 1019.2 |
| 20260506113507 | 41 | 281 | 0.0 | 0.0 | 0.00 | 0.16 | 0.00 | 95 | 1019.1 |
| 20260506113005 | 41 | 281 | 0.0 | 0.0 | 0.00 | 0.16 | 0.00 | 95 | 1019.2 |
| 20260506112006 | 42 | 281 | 0.0 | 1.0 | 0.00 | 0.16 | 0.00 | 95 | 1019.1 |
| 20260506111507 | 42 | 281 | 0.0 | 1.0 | 0.00 | 0.16 | 0.00 | 95 | 1019.1 |
| 20260506111005 | 42 | 281 | 0.0 | 0.0 | 0.00 | 0.16 | 0.00 | 95 | 1018.9 |
| 20260506110006 | 42 | 281 | 0.0 | 0.0 | 0.00 | 0.16 | 0.00 | 95 | 1018.9 |
| 20260506105505 | 42 | 281 | 0.0 | 0.0 | 0.00 | 0.16 | 0.00 | 95 | 1018.9 |
| 20260506105005 | 42 | 281 | 0.0 | 0.0 | 0.00 | 0.16 | 0.00 | 95 | 1018.8 |
| 20260506104507 | 43 | 280 | 0.0 | 0.0 | 0.00 | 0.16 | 0.00 | 95 | 1018.9 |
| 20260506103506 | 43 | 280 | 0.0 | 0.0 | 0.00 | 0.16 | 0.00 | 95 | 1018.9 |
| 20260506103006 | 43 | 281 | 0.0 | 1.0 | 0.00 | 0.16 | 0.00 | 95 | 1018.8 |
| 20260506102505 | 44 | 281 | 0.0 | 1.0 | 0.00 | 0.16 | 0.00 | 95 | 1018.7 |
| 20260506102007 | 44 | 281 | 0.0 | 0.0 | 0.00 | 0.16 | 0.00 | 95 | 1018.5 |
| 20260506101503 | 44 | 281 | 0.0 | 0.0 | 0.00 | 0.16 | 0.00 | 95 | 1018.5 |
| 20260506101005 | 44 | 281 | 0.0 | 0.0 | 0.00 | 0.16 | 0.00 | 95 | 1018.6 |
| 20260506100501 | 44 | 281 | 0.0 | 0.0 | 0.00 | 0.16 | 0.00 | 95 | 1018.5 |
| 20260506100006 | 44 | 281 | 0.0 | 0.0 | 0.00 | 0.16 | 0.00 | 95 | 1018.5 |
| 20260506095005 | 45 | 280 | 0.0 | 0.0 | 0.00 | 0.16 | 0.00 | 95 | 1018.4 |
| 20260506094505 | 45 | 280 | 0.0 | 0.0 | 0.00 | 0.16 | 0.00 | 95 | 1018.4 |
| 20260506094005 | 45 | 280 | 0.0 | 0.0 | 0.00 | 0.16 | 0.00 | 95 | 1018.3 |
| 20260506093006 | 44 | 280 | 0.0 | 0.0 | 0.00 | 0.16 | 0.00 | 95 | 1018.3 |
| 20260506092506 | 44 | 280 | 0.0 | 0.0 | 0.00 | 0.16 | 0.00 | 95 | 1018.3 |
| 20260506092006 | 45 | 280 | 0.0 | 1.0 | 0.00 | 0.16 | 0.00 | 95 | 1018.3 |
| 20260506091007 | 45 | 281 | 0.0 | 0.0 | 0.00 | 0.16 | 0.00 | 95 | 1018.4 |
| 20260506090007 | 45 | 281 | 0.0 | 0.0 | 0.00 | 0.19 | 0.00 | 95 | 1018.3 |
| 20260506085006 | 45 | 281 | 0.0 | 1.0 | 0.00 | 0.19 | 0.00 | 95 | 1018.4 |
| 20260506084505 | 45 | 281 | 0.0 | 0.0 | 0.00 | 0.19 | 0.00 | 95 | 1018.5 |
| 20260506084006 | 45 | 281 | 0.0 | 0.0 | 0.00 | 0.19 | 0.00 | 95 | 1018.5 |
| 20260506083503 | 45 | 281 | 0.0 | 0.0 | 0.00 | 0.19 | 0.00 | 95 | 1018.4 |
| 20260506082504 | 45 | 281 | 0.0 | 0.0 | 0.00 | 0.19 | 0.00 | 95 | 1018.6 |
| 20260506082006 | 45 | 281 | 0.0 | 0.0 | 0.00 | 0.19 | 0.00 | 95 | 1018.6 |
| 20260506081505 | 45 | 281 | 0.0 | 0.0 | 0.00 | 0.19 | 0.00 | 95 | 1018.6 |
| 20260506081007 | 45 | 281 | 0.0 | 0.0 | 0.00 | 0.19 | 0.00 | 95 | 1018.7 |
| 20260506080504 | 45 | 281 | 0.0 | 0.0 | 0.00 | 0.19 | 0.00 | 95 | 1018.6 |
| 20260506073505 | 45 | 281 | 0.0 | 2.0 | 0.00 | 0.23 | 0.00 | 95 | 1018.5 |
| 20260506073006 | 45 | 281 | 0.0 | 2.0 | 0.00 | 0.23 | 0.00 | 95 | 1018.5 |
| 20260506072006 | 45 | 301 | 0.0 | 1.0 | 0.00 | 0.23 | 0.00 | 95 | 1018.8 |
| 20260506071505 | 45 | 302 | 0.0 | 1.0 | 0.00 | 0.23 | 0.00 | 95 | 1018.9 |
| 20260506070505 | 45 | 297 | 0.0 | 0.0 | 0.00 | 0.23 | 0.00 | 95 | 1018.5 |
| 20260506062501 | 45 | 258 | 0.0 | 0.0 | 0.00 | 0.31 | 0.23 | 95 | 1018.0 |
| 20260506062006 | 45 | 258 | 0.0 | 0.0 | 0.00 | 0.31 | 0.23 | 95 | 1018.0 |
| 20260506061507 | 45 | 258 | 0.0 | 0.0 | 0.00 | 0.31 | 0.23 | 95 | 1017.9 |